Time;durP1;ratioP1;P1;durP2;ratioP2;P2;SDS_P1;SDS_P2;PMS_P1;PMS_P2;Temp;Humidity;BMP_temperature;BMP_pressure;BME280_temperature;BME280_humidity;BME280_pressure;Samples;Min_cycle;Max_cycle;Signal;HPM_P1;HPM_P2
2021/06/15 00:00:25;;;;;;;6.25;5.65;;;25.00;96.70;;;;;;5035703;28;20395;-74
2021/06/15 00:02:54;;;;;;;6.30;5.72;;;25.00;96.70;;;;;;5035861;28;20044;-74
2021/06/15 00:05:22;;;;;;;6.38;5.60;;;25.00;96.70;;;;;;5037396;28;20072;-74
2021/06/15 00:07:53;;;;;;;7.60;6.00;;;25.00;96.70;;;;;;5039922;28;20053;-73
2021/06/15 00:10:29;;;;;;;5.72;4.85;;;24.90;96.70;;;;;;5040145;28;20094;-74
2021/06/15 00:13:10;;;;;;;5.05;4.63;;;24.90;96.70;;;;;;5039477;28;20033;-74
2021/06/15 00:15:48;;;;;;;5.50;4.97;;;24.90;96.70;;;;;;5039150;28;20041;-75
2021/06/15 00:18:19;;;;;;;5.40;4.72;;;24.80;96.70;;;;;;5037654;28;20091;-74
2021/06/15 00:20:50;;;;;;;5.25;4.75;;;24.70;96.70;;;;;;5039331;28;20511;-74
2021/06/15 00:23:22;;;;;;;8.10;4.80;;;24.60;96.70;;;;;;5041483;28;20049;-74
2021/06/15 00:25:51;;;;;;;5.22;4.75;;;24.70;96.70;;;;;;5038002;28;20072;-74
2021/06/15 00:28:22;;;;;;;5.57;5.07;;;24.70;96.70;;;;;;5040425;28;20033;-74
2021/06/15 00:30:51;;;;;;;6.38;5.35;;;24.60;96.70;;;;;;5039116;28;20047;-74
2021/06/15 00:33:21;;;;;;;5.65;4.93;;;24.60;96.70;;;;;;5039845;28;20037;-74
2021/06/15 00:35:52;;;;;;;5.13;4.63;;;24.60;96.70;;;;;;5039310;28;20136;-74
2021/06/15 00:38:23;;;;;;;5.15;4.65;;;24.60;96.70;;;;;;5038945;28;20570;-74
2021/06/15 00:40:53;;;;;;;5.32;4.82;;;24.60;96.70;;;;;;5040989;28;20124;-74
2021/06/15 00:43:22;;;;;;;4.90;4.40;;;24.60;96.70;;;;;;5039223;28;20036;-74
2021/06/15 00:45:52;;;;;;;5.18;4.68;;;24.70;96.70;;;;;;5021918;28;20049;-75
2021/06/15 00:48:28;;;;;;;5.25;4.35;;;24.70;96.70;;;;;;5038415;28;20048;-75
2021/06/15 00:51:00;;;;;;;4.68;4.25;;;24.60;96.70;;;;;;5036653;28;20037;-75
2021/06/15 00:53:32;;;;;;;5.43;4.80;;;24.60;96.70;;;;;;5036794;28;20513;-75
2021/06/15 00:56:04;;;;;;;5.30;4.43;;;24.50;96.70;;;;;;5038036;28;20140;-75
2021/06/15 00:58:35;;;;;;;5.50;4.70;;;24.50;96.70;;;;;;5019582;28;20110;-75
2021/06/15 01:01:08;;;;;;;5.40;4.90;;;24.50;96.70;;;;;;5035945;28;20032;-75
2021/06/15 01:03:41;;;;;;;7.68;5.20;;;24.50;96.70;;;;;;5033788;28;20439;-75
2021/06/15 01:06:28;;;;;;;4.85;4.38;;;24.60;96.70;;;;;;5037049;28;20829;-75
2021/06/15 01:09:12;;;;;;;5.00;4.60;;;24.50;96.70;;;;;;5022676;28;20470;-75
2021/06/15 01:11:52;;;;;;;4.95;4.50;;;24.40;96.70;;;;;;5040935;28;20037;-75
2021/06/15 01:14:38;;;;;;;4.95;4.55;;;24.10;96.70;;;;;;5033870;28;20507;-74
2021/06/15 01:17:17;;;;;;;5.45;4.93;;;24.10;96.70;;;;;;5036397;28;20400;-75
2021/06/15 01:20:04;;;;;;;5.72;5.07;;;24.20;96.70;;;;;;5038433;28;20103;-75
2021/06/15 01:23:04;;;;;;;5.85;5.25;;;24.20;96.70;;;;;;5056819;28;20147;-75
2021/06/15 01:25:56;;;;;;;5.53;4.88;;;24.10;96.70;;;;;;5041893;28;20102;-75
2021/06/15 01:28:32;;;;;;;6.07;4.68;;;24.00;96.70;;;;;;5040369;28;20521;-75
2021/06/15 01:31:06;;;;;;;5.30;4.75;;;24.00;96.70;;;;;;5038306;28;20064;-75
2021/06/15 01:33:40;;;;;;;7.03;5.32;;;24.10;96.70;;;;;;5040142;28;20408;-75
2021/06/15 01:36:15;;;;;;;6.32;4.78;;;24.00;96.70;;;;;;5040642;28;20051;-75
2021/06/15 01:38:52;;;;;;;5.07;4.57;;;24.00;96.70;;;;;;5041003;28;20064;-75
2021/06/15 01:41:30;;;;;;;5.43;4.93;;;24.00;96.70;;;;;;5026717;28;20049;-75
2021/06/15 01:44:07;;;;;;;8.40;4.93;;;24.10;96.70;;;;;;5036141;28;20045;-75
2021/06/15 01:46:44;;;;;;;5.18;4.70;;;24.10;96.70;;;;;;5041580;28;20164;-75
2021/06/15 01:49:19;;;;;;;6.13;4.63;;;24.10;96.70;;;;;;5035044;28;20357;-75
2021/06/15 01:51:49;;;;;;;5.32;4.75;;;24.00;96.70;;;;;;5042184;28;20041;-75
2021/06/15 01:54:23;;;;;;;6.30;5.40;;;24.00;96.70;;;;;;5042644;28;20154;-75
2021/06/15 01:56:57;;;;;;;5.47;4.93;;;24.00;96.70;;;;;;5040672;28;20072;-75
2021/06/15 01:59:30;;;;;;;6.10;5.05;;;24.00;96.70;;;;;;5022020;28;20435;-75
2021/06/15 02:02:01;;;;;;;5.90;5.40;;;24.00;96.70;;;;;;5039678;28;20068;-75
2021/06/15 02:04:36;;;;;;;5.78;5.18;;;23.90;96.70;;;;;;5039444;28;20112;-75
2021/06/15 02:07:08;;;;;;;6.65;5.97;;;23.80;96.70;;;;;;5041096;28;20057;-75
2021/06/15 02:09:41;;;;;;;6.10;5.50;;;23.70;96.70;;;;;;5043683;28;20522;-75
2021/06/15 02:12:44;;;;;;;7.15;5.50;;;23.80;96.70;;;;;;5003614;28;20049;-75
2021/06/15 02:15:35;;;;;;;6.47;5.13;;;23.70;96.70;;;;;;5037066;28;20118;-75
2021/06/15 02:18:24;;;;;;;7.43;5.65;;;23.80;96.70;;;;;;5039656;28;20534;-75
2021/06/15 02:21:11;;;;;;;6.85;5.20;;;23.80;96.70;;;;;;5023661;28;20033;-75
2021/06/15 02:23:43;;;;;;;6.70;5.55;;;23.70;96.70;;;;;;5041452;28;20033;-75
2021/06/15 02:26:17;;;;;;;8.23;5.90;;;23.80;96.70;;;;;;5026843;28;20057;-75
2021/06/15 02:28:54;;;;;;;7.65;5.35;;;23.70;96.70;;;;;;5038958;28;20300;-75
2021/06/15 02:31:43;;;;;;;6.93;5.45;;;23.70;96.70;;;;;;5037083;28;20402;-75
2021/06/15 02:34:18;;;;;;;6.65;5.78;;;23.70;96.70;;;;;;5041169;28;20064;-74
2021/06/15 02:36:58;;;;;;;7.38;5.47;;;23.60;96.70;;;;;;5041790;28;20036;-75
2021/06/15 02:39:36;;;;;;;5.50;4.97;;;23.60;96.70;;;;;;5039177;28;20041;-75
2021/06/15 02:42:11;;;;;;;6.53;5.05;;;23.60;96.70;;;;;;5037993;28;20190;-75
2021/06/15 02:44:43;;;;;;;5.38;4.95;;;23.60;96.70;;;;;;5040728;28;20064;-75
2021/06/15 02:47:19;;;;;;;6.43;5.03;;;23.60;96.70;;;;;;5055159;28;20053;-75
2021/06/15 02:49:54;;;;;;;6.80;5.10;;;23.60;96.70;;;;;;5032023;28;20053;-75
2021/06/15 02:52:34;;;;;;;5.93;5.28;;;23.70;96.70;;;;;;5038967;28;20705;-75
2021/06/15 02:55:11;;;;;;;6.57;4.68;;;23.70;96.70;;;;;;5039087;28;20063;-75
2021/06/15 02:57:43;;;;;;;5.25;4.75;;;23.70;96.70;;;;;;5034337;28;20041;-75
2021/06/15 03:00:15;;;;;;;5.50;5.00;;;23.60;96.70;;;;;;5038588;28;20403;-75
2021/06/15 03:02:46;;;;;;;5.63;4.90;;;23.60;96.70;;;;;;5056536;28;20058;-75
2021/06/15 03:05:18;;;;;;;8.48;5.22;;;23.70;96.70;;;;;;5040443;28;20387;-75
2021/06/15 03:07:52;;;;;;;7.45;5.80;;;23.70;96.70;;;;;;5038978;28;20100;-75
2021/06/15 03:10:24;;;;;;;5.70;5.20;;;23.70;96.70;;;;;;5038463;28;20456;-75
2021/06/15 03:13:03;;;;;;;5.63;4.57;;;23.60;96.70;;;;;;5038083;28;20445;-75
2021/06/15 03:15:42;;;;;;;6.85;4.82;;;23.40;96.70;;;;;;5034010;28;20046;-75
2021/06/15 03:21:50;;;;;;;7.05;5.65;;;23.10;96.70;;;;;;5037498;28;20037;-75
2021/06/15 03:24:22;;;;;;;6.20;5.18;;;23.30;96.70;;;;;;5038393;28;20053;-75
2021/06/15 03:27:05;;;;;;;9.43;5.45;;;23.40;96.70;;;;;;5038388;28;20052;-75
2021/06/15 03:29:43;;;;;;;8.15;5.25;;;23.40;96.70;;;;;;5038956;28;20037;-75
2021/06/15 03:32:15;;;;;;;5.85;5.10;;;23.30;96.70;;;;;;5038304;28;20075;-75
2021/06/15 03:35:33;;;;;;;5.97;4.97;;;23.30;96.70;;;;;;5040815;28;20037;-75
2021/06/15 03:38:06;;;;;;;6.13;5.53;;;23.40;96.70;;;;;;5034680;28;20033;-75
2021/06/15 03:40:58;;;;;;;5.70;5.20;;;23.40;96.70;;;;;;5017759;28;20108;-75
2021/06/15 03:43:30;;;;;;;6.35;4.65;;;23.50;96.70;;;;;;5033767;28;20100;-75
2021/06/15 03:46:06;;;;;;;7.20;4.88;;;23.50;96.70;;;;;;5040528;28;20391;-75
2021/06/15 03:48:41;;;;;;;5.40;4.97;;;23.50;96.70;;;;;;5039705;28;20040;-75
2021/06/15 03:51:12;;;;;;;4.97;4.57;;;23.40;96.70;;;;;;5019168;28;20045;-75
2021/06/15 03:53:43;;;;;;;6.43;5.35;;;23.40;96.70;;;;;;5038082;28;20056;-75
2021/06/15 03:56:46;;;;;;;5.57;4.82;;;23.60;96.70;;;;;;5031606;28;20099;-75
2021/06/15 03:59:17;;;;;;;6.45;5.30;;;23.60;96.70;;;;;;5040069;28;20556;-75
2021/06/15 04:01:47;;;;;;;7.15;5.30;;;23.50;96.70;;;;;;5035334;28;20040;-75
2021/06/15 04:04:19;;;;;;;5.90;4.65;;;23.30;96.70;;;;;;5037244;28;20106;-75
2021/06/15 04:06:51;;;;;;;5.18;4.68;;;23.20;96.70;;;;;;5037849;28;20418;-75
2021/06/15 04:09:25;;;;;;;5.20;4.72;;;23.30;96.70;;;;;;5038004;28;20046;-75
2021/06/15 04:11:57;;;;;;;5.53;5.13;;;23.30;96.70;;;;;;5023145;28;20049;-75
2021/06/15 04:14:28;;;;;;;5.82;5.22;;;23.40;96.70;;;;;;5037249;28;20056;-75
2021/06/15 04:16:59;;;;;;;7.22;5.47;;;23.60;96.70;;;;;;5020566;28;20040;-75
2021/06/15 04:19:32;;;;;;;8.18;5.20;;;23.70;96.70;;;;;;5039777;28;20190;-75
2021/06/15 04:22:03;;;;;;;5.97;5.13;;;23.60;96.70;;;;;;5038531;28;20449;-75
2021/06/15 04:24:40;;;;;;;;;;;23.50;96.70;;;;;;5038211;28;20045;-75
2021/06/15 04:27:10;;;;;;;5.63;5.10;;;23.60;96.70;;;;;;5054719;28;19931;-75
2021/06/15 04:29:40;;;;;;;8.85;5.50;;;23.60;96.70;;;;;;5035230;28;20419;-75
2021/06/15 04:32:11;;;;;;;6.15;5.30;;;23.70;96.70;;;;;;5051854;28;20046;-75
2021/06/15 04:34:43;;;;;;;6.35;5.05;;;23.90;96.70;;;;;;5032467;28;20106;-75
2021/06/15 04:37:14;;;;;;;5.85;5.35;;;23.90;96.70;;;;;;5038658;28;20067;-75
2021/06/15 04:39:48;;;;;;;7.05;5.13;;;23.90;96.70;;;;;;5040120;28;20068;-75
2021/06/15 04:42:30;;;;;;;6.90;5.07;;;23.90;96.70;;;;;;5039102;28;20037;-75
2021/06/15 04:45:00;;;;;;;6.30;5.30;;;23.90;96.70;;;;;;5038137;28;20140;-75
2021/06/15 04:47:36;;;;;;;5.65;5.13;;;23.90;96.70;;;;;;5038557;28;20045;-75
2021/06/15 04:50:12;;;;;;;6.43;5.90;;;24.00;96.70;;;;;;5037073;28;20525;-75
2021/06/15 04:52:47;;;;;;;7.05;5.47;;;24.00;96.70;;;;;;5039104;28;20116;-75
2021/06/15 04:55:22;;;;;;;7.65;5.45;;;24.10;96.70;;;;;;5036680;28;20625;-75
2021/06/15 04:57:54;;;;;;;5.50;5.00;;;24.10;96.70;;;;;;5041001;28;20045;-75
2021/06/15 05:00:24;;;;;;;6.10;5.50;;;24.20;96.70;;;;;;5039636;28;20056;-75
2021/06/15 05:02:53;;;;;;;5.80;5.30;;;24.20;96.70;;;;;;5040045;28;20036;-75
2021/06/15 05:05:22;;;;;;;5.68;4.95;;;24.10;96.70;;;;;;5020290;28;20147;-75
2021/06/15 05:07:55;;;;;;;5.95;5.32;;;24.20;96.70;;;;;;5042391;28;20508;-75
2021/06/15 05:10:26;;;;;;;6.25;5.65;;;24.10;96.70;;;;;;5044566;28;20045;-75
2021/06/15 05:12:55;;;;;;;4.93;4.53;;;24.20;96.70;;;;;;5042535;28;20056;-75
2021/06/15 05:15:27;;;;;;;6.70;5.80;;;24.30;96.70;;;;;;5039617;28;20048;-75
2021/06/15 05:17:57;;;;;;;7.43;5.63;;;24.30;96.70;;;;;;5041319;28;20283;-75
2021/06/15 05:20:26;;;;;;;6.40;5.80;;;24.40;96.70;;;;;;5040655;28;20040;-74
2021/06/15 05:23:00;;;;;;;6.78;6.07;;;24.40;96.70;;;;;;5043828;28;20477;-75
2021/06/15 05:25:30;;;;;;;8.02;5.30;;;24.40;96.70;;;;;;5039556;28;20452;-75
2021/06/15 05:27:59;;;;;;;5.85;5.28;;;24.40;96.70;;;;;;5042276;28;20037;-75
2021/06/15 05:30:28;;;;;;;6.65;5.45;;;24.40;96.70;;;;;;5042974;28;20060;-75
2021/06/15 05:32:56;;;;;;;6.38;5.28;;;24.40;96.70;;;;;;5038757;28;20044;-75
2021/06/15 05:35:24;;;;;;;8.20;6.07;;;24.50;96.70;;;;;;5038456;28;20599;-75
2021/06/15 05:37:52;;;;;;;6.10;5.20;;;24.50;96.70;;;;;;5022078;28;20147;-75
2021/06/15 05:40:22;;;;;;;6.38;5.10;;;24.50;96.70;;;;;;5040142;28;20564;-75
2021/06/15 05:42:51;;;;;;;10.20;6.38;;;24.50;96.70;;;;;;5042118;28;20033;-75
2021/06/15 05:45:19;;;;;;;6.55;5.60;;;24.60;96.70;;;;;;5038004;28;20502;-75
2021/06/15 05:47:47;;;;;;;7.03;4.85;;;24.60;96.70;;;;;;5038518;28;20626;-76
2021/06/15 05:50:16;;;;;;;7.80;5.60;;;24.60;96.70;;;;;;5024293;28;20064;-75
2021/06/15 05:52:45;;;;;;;7.03;5.28;;;24.70;96.70;;;;;;5041491;28;20040;-75
2021/06/15 05:55:14;;;;;;;6.53;5.93;;;24.70;96.70;;;;;;5037431;28;20033;-75
2021/06/15 05:57:43;;;;;;;6.40;5.65;;;24.70;96.70;;;;;;5037566;28;20505;-76
2021/06/15 06:00:17;;;;;;;6.53;5.30;;;24.80;96.70;;;;;;5027877;28;20037;-76
2021/06/15 06:02:45;;;;;;;5.72;5.22;;;24.90;96.70;;;;;;5024523;28;20410;-76
2021/06/15 06:10:33;;;;;;;6.35;4.45;;;25.00;96.70;;;;;;5041071;28;20076;-76
2021/06/15 06:13:01;;;;;;;6.00;5.15;;;25.20;96.70;;;;;;5038064;28;20458;-76
2021/06/15 06:15:31;;;;;;;7.40;4.68;;;25.10;96.70;;;;;;5040354;28;20033;-76
2021/06/15 06:18:04;;;;;;;6.90;4.88;;;25.20;96.70;;;;;;5039497;28;20037;-76
2021/06/15 06:20:32;;;;;;;8.07;4.68;;;25.20;96.70;;;;;;5042596;28;20079;-76
2021/06/15 06:23:00;;;;;;;5.53;4.05;;;25.20;96.70;;;;;;5038253;28;20059;-76
2021/06/15 06:25:29;;;;;;;7.50;4.60;;;25.20;96.70;;;;;;5034927;28;20048;-76
2021/06/15 06:27:57;;;;;;;8.30;4.15;;;25.30;96.70;;;;;;5041468;28;20060;-76
2021/06/15 06:30:25;;;;;;;5.70;4.28;;;25.40;96.70;;;;;;5041628;28;20049;-76
2021/06/15 06:32:55;;;;;;;5.90;4.10;;;25.40;96.70;;;;;;5032511;28;20640;-76
2021/06/15 06:35:23;;;;;;;7.43;3.92;;;25.50;96.70;;;;;;5035871;28;20072;-76
2021/06/15 06:37:51;;;;;;;7.07;4.13;;;25.50;96.70;;;;;;5038972;28;20580;-76
2021/06/15 06:40:19;;;;;;;5.30;3.85;;;25.60;96.70;;;;;;5036797;28;20068;-76
2021/06/15 06:42:48;;;;;;;6.47;3.88;;;25.60;96.70;;;;;;5039153;28;20043;-76
2021/06/15 06:45:17;;;;;;;4.63;3.65;;;25.70;96.70;;;;;;5041350;28;20044;-76
2021/06/15 06:47:45;;;;;;;11.43;4.20;;;25.70;96.70;;;;;;5042560;28;20394;-76
2021/06/15 06:50:15;;;;;;;4.80;3.03;;;25.80;96.70;;;;;;5040582;28;20064;-76
2021/06/15 06:52:43;;;;;;;6.90;3.25;;;25.80;96.70;;;;;;5038257;28;20123;-76
2021/06/15 06:55:18;;;;;;;5.15;3.70;;;25.90;96.70;;;;;;5034779;28;20071;-76
2021/06/15 06:57:47;;;;;;;3.28;2.90;;;25.90;96.70;;;;;;5039829;28;20063;-76
2021/06/15 07:00:16;;;;;;;4.70;3.50;;;25.90;96.70;;;;;;5025125;28;20092;-76
2021/06/15 07:02:48;;;;;;;5.38;3.58;;;26.00;96.70;;;;;;5039819;28;20040;-76
2021/06/15 07:05:18;;;;;;;6.68;3.17;;;26.00;96.70;;;;;;5037187;28;20133;-76
2021/06/15 07:07:46;;;;;;;7.05;3.15;;;26.10;96.70;;;;;;5043439;28;20061;-76
2021/06/15 07:10:14;;;;;;;10.43;4.15;;;26.10;95.80;;;;;;5041119;28;20116;-76
2021/06/15 07:12:42;;;;;;;5.63;3.40;;;26.20;95.30;;;;;;5035480;28;20510;-76
2021/06/15 07:15:11;;;;;;;7.82;3.63;;;26.20;94.80;;;;;;5038424;28;20033;-76
2021/06/15 07:17:40;;;;;;;6.72;3.20;;;26.30;95.80;;;;;;5036160;28;20064;-76
2021/06/15 07:20:10;;;;;;;5.43;3.55;;;26.30;94.30;;;;;;5040540;28;20053;-76
2021/06/15 07:22:39;;;;;;;5.82;3.25;;;26.40;94.50;;;;;;5038901;28;20045;-76
2021/06/15 07:25:09;;;;;;;6.97;3.60;;;26.40;94.60;;;;;;5038569;28;20091;-76
2021/06/15 07:27:37;;;;;;;5.28;3.28;;;26.50;94.40;;;;;;5038746;28;20118;-76
2021/06/15 07:30:06;;;;;;;5.72;3.45;;;26.60;94.80;;;;;;5035734;28;20406;-76
2021/06/15 07:32:34;;;;;;;6.18;3.38;;;26.50;94.40;;;;;;5051109;28;20041;-76
2021/06/15 07:35:03;;;;;;;5.43;3.22;;;26.60;95.10;;;;;;5040222;28;20045;-76
2021/06/15 07:37:31;;;;;;;6.80;3.22;;;26.60;95.10;;;;;;5040174;28;20131;-76
2021/06/15 07:40:01;;;;;;;6.05;3.78;;;26.80;96.10;;;;;;5036740;28;20079;-76
2021/06/15 07:42:29;;;;;;;6.50;3.47;;;26.80;95.40;;;;;;5032256;28;20036;-76
2021/06/15 07:44:57;;;;;;;5.68;3.63;;;26.80;95.30;;;;;;5036490;28;20406;-76
2021/06/15 07:47:26;;;;;;;6.65;3.95;;;26.80;95.30;;;;;;5038148;28;20048;-76
2021/06/15 07:50:12;;;;;;;5.47;3.55;;;27.00;95.60;;;;;;5026347;28;20111;-76
2021/06/15 07:52:41;;;;;;;6.20;3.42;;;27.10;94.70;;;;;;5038293;28;20041;-76
2021/06/15 07:55:11;;;;;;;5.63;3.50;;;27.20;93.50;;;;;;5043067;28;20044;-76
2021/06/15 07:57:40;;;;;;;6.28;3.30;;;27.30;93.20;;;;;;5039605;28;20041;-76
2021/06/15 08:00:09;;;;;;;4.75;3.78;;;27.30;94.00;;;;;;5036344;28;20087;-75
2021/06/15 08:02:44;;;;;;;4.25;3.22;;;27.40;93.30;;;;;;5037386;28;20033;-74
2021/06/15 08:05:14;;;;;;;4.05;3.08;;;27.50;92.40;;;;;;5040038;28;20098;-76
2021/06/15 08:07:44;;;;;;;3.95;3.03;;;27.50;91.80;;;;;;5038023;28;20051;-76
2021/06/15 08:10:15;;;;;;;3.92;2.85;;;27.60;91.60;;;;;;5038523;28;20102;-76
2021/06/15 08:12:43;;;;;;;4.85;2.90;;;27.70;91.80;;;;;;5033782;28;20042;-75
2021/06/15 08:15:12;;;;;;;5.15;2.97;;;27.80;91.10;;;;;;5035430;28;20110;-75
2021/06/15 08:17:40;;;;;;;7.22;3.47;;;27.90;90.30;;;;;;5034604;28;20056;-76
2021/06/15 08:20:10;;;;;;;3.10;2.80;;;28.00;90.60;;;;;;5034538;28;20059;-75
2021/06/15 08:22:38;;;;;;;4.65;2.80;;;28.20;90.00;;;;;;5035377;28;20037;-75
2021/06/15 08:25:08;;;;;;;5.55;3.53;;;28.40;89.80;;;;;;5040139;28;20044;-75
2021/06/15 08:27:37;;;;;;;4.80;3.25;;;28.40;89.30;;;;;;5038951;28;20033;-76
2021/06/15 08:30:09;;;;;;;4.88;3.53;;;28.50;90.40;;;;;;5040810;28;20125;-76
2021/06/15 08:32:37;;;;;;;4.30;2.95;;;28.50;89.30;;;;;;5054661;28;20390;-75
2021/06/15 08:35:07;;;;;;;5.60;3.10;;;28.50;88.10;;;;;;5042400;28;20091;-76
2021/06/15 08:37:36;;;;;;;5.95;3.35;;;28.50;88.70;;;;;;5036268;28;20279;-76
2021/06/15 08:40:06;;;;;;;4.35;3.30;;;28.60;89.10;;;;;;5039013;28;20127;-75
2021/06/15 08:42:37;;;;;;;5.00;3.40;;;28.60;89.00;;;;;;5040177;28;20052;-76
2021/06/15 08:45:09;;;;;;;4.20;3.00;;;28.60;89.40;;;;;;5043077;28;20048;-76
2021/06/15 08:47:38;;;;;;;4.50;3.13;;;28.60;89.40;;;;;;5042384;28;20059;-76
2021/06/15 08:50:09;;;;;;;5.50;3.17;;;28.60;89.10;;;;;;5035354;28;20045;-76
2021/06/15 08:52:38;;;;;;;5.43;3.60;;;28.70;89.50;;;;;;5041577;28;20044;-76
2021/06/15 08:55:11;;;;;;;3.22;2.90;;;28.70;88.80;;;;;;5038919;28;20045;-76
2021/06/15 08:57:40;;;;;;;5.88;3.25;;;28.90;88.60;;;;;;5040538;28;20429;-76
2021/06/15 09:00:12;;;;;;;3.45;2.80;;;28.90;88.50;;;;;;5041015;28;20466;-76
2021/06/15 09:02:41;;;;;;;3.28;2.97;;;28.90;87.10;;;;;;5039219;28;20157;-76
2021/06/15 09:05:11;;;;;;;4.80;2.85;;;29.10;88.10;;;;;;5039991;28;20421;-76
2021/06/15 09:07:59;;;;;;;4.22;3.38;;;29.10;88.10;;;;;;5041566;28;20045;-76
2021/06/15 09:10:28;;;;;;;3.33;2.70;;;29.00;87.60;;;;;;5041128;28;20052;-76
2021/06/15 09:12:57;;;;;;;6.15;3.28;;;29.00;87.00;;;;;;5043986;28;20056;-76
2021/06/15 09:15:27;;;;;;;4.03;3.13;;;29.00;87.30;;;;;;5024296;28;20556;-76
2021/06/15 09:17:56;;;;;;;7.30;2.95;;;29.00;87.00;;;;;;5043634;28;20626;-76
2021/06/15 09:20:27;;;;;;;4.75;2.85;;;29.10;87.50;;;;;;5026932;28;20126;-76
2021/06/15 09:23:00;;;;;;;3.72;2.90;;;29.10;86.70;;;;;;5038836;28;20445;-76
2021/06/15 09:25:29;;;;;;;4.90;2.50;;;29.10;85.70;;;;;;5039773;28;20079;-76
2021/06/15 09:27:58;;;;;;;4.35;3.13;;;29.20;86.20;;;;;;5039641;28;20037;-76
2021/06/15 09:30:29;;;;;;;5.68;3.00;;;29.30;85.50;;;;;;5037654;28;20085;-76
2021/06/15 09:33:09;;;;;;;4.75;3.30;;;29.20;85.50;;;;;;5033954;28;20055;-78
2021/06/15 09:35:37;;;;;;;4.03;2.88;;;29.30;85.80;;;;;;5045185;28;20052;-76
2021/06/15 09:38:05;;;;;;;3.33;3.00;;;29.40;85.50;;;;;;5039693;28;20047;-76
2021/06/15 09:40:35;;;;;;;5.95;3.33;;;29.50;85.60;;;;;;5039698;28;20406;-76
2021/06/15 09:43:05;;;;;;;4.82;2.90;;;29.50;84.70;;;;;;5038099;28;20521;-76
2021/06/15 09:45:37;;;;;;;4.00;2.88;;;29.60;84.70;;;;;;5042840;28;20037;-77
2021/06/15 09:48:26;;;;;;;4.47;3.10;;;29.80;83.90;;;;;;5039118;28;20120;-77
2021/06/15 09:50:57;;;;;;;3.13;2.90;;;29.70;84.40;;;;;;5053299;28;20052;-77
2021/06/15 09:53:30;;;;;;;4.15;2.90;;;29.80;83.80;;;;;;5039494;28;20135;-76
2021/06/15 09:56:01;;;;;;;4.30;3.55;;;29.80;85.10;;;;;;5043362;28;20511;-76
2021/06/15 09:58:46;;;;;;;5.63;3.50;;;30.00;84.30;;;;;;5040940;28;20048;-76
2021/06/15 10:01:35;;;;;;;4.00;3.00;;;29.90;83.90;;;;;;5041092;28;20132;-76
2021/06/15 10:04:11;;;;;;;3.75;3.20;;;30.20;84.50;;;;;;5038081;28;20142;-76
2021/06/15 10:06:41;;;;;;;5.95;2.63;;;30.40;83.50;;;;;;5038651;28;20453;-76
2021/06/15 10:09:10;;;;;;;4.53;3.08;;;30.40;81.90;;;;;;5041153;28;20552;-76
2021/06/15 10:11:39;;;;;;;2.88;2.58;;;30.40;80.70;;;;;;5036661;28;20491;-76
2021/06/15 10:14:07;;;;;;;4.13;2.47;;;30.40;80.30;;;;;;5040382;28;20099;-76
2021/06/15 10:16:37;;;;;;;4.63;3.13;;;30.50;80.50;;;;;;5038394;28;20043;-76
2021/06/15 10:19:06;;;;;;;3.03;2.72;;;30.40;80.10;;;;;;5040690;28;20132;-76
2021/06/15 10:21:34;;;;;;;3.22;2.50;;;30.60;80.40;;;;;;5039437;28;20413;-76
2021/06/15 10:24:04;;;;;;;3.10;2.72;;;30.80;80.10;;;;;;5038840;28;20168;-76
2021/06/15 10:26:33;;;;;;;3.08;2.30;;;30.90;79.80;;;;;;5040568;28;20079;-76
2021/06/15 10:29:08;;;;;;;4.93;2.88;;;31.10;76.60;;;;;;5042643;28;20039;-76
2021/06/15 10:31:39;;;;;;;4.47;2.58;;;31.20;76.80;;;;;;5034856;28;20060;-76
2021/06/15 10:34:07;;;;;;;4.88;2.20;;;31.30;74.00;;;;;;5035507;28;20045;-76
2021/06/15 10:36:40;;;;;;;3.28;2.30;;;31.30;74.80;;;;;;5041586;28;20119;-76
2021/06/15 10:39:10;;;;;;;3.60;2.15;;;31.40;74.30;;;;;;5053900;28;20063;-76
2021/06/15 10:41:40;;;;;;;4.05;2.38;;;31.50;74.10;;;;;;5038777;28;20159;-77
2021/06/15 10:44:14;;;;;;;2.60;2.22;;;31.40;74.90;;;;;;5038496;28;20046;-76
2021/06/15 10:46:45;;;;;;;4.03;2.42;;;31.40;75.50;;;;;;5040845;28;20539;-76
2021/06/15 10:49:15;;;;;;;4.18;2.08;;;31.40;74.80;;;;;;5039196;28;20634;-76
2021/06/15 10:51:54;;;;;;;3.42;2.05;;;31.50;74.50;;;;;;5038680;28;20499;-76
2021/06/15 10:54:28;;;;;;;3.38;2.08;;;31.70;72.40;;;;;;5017525;28;20202;-76
2021/06/15 10:57:17;;;;;;;2.40;2.20;;;31.60;71.10;;;;;;5041097;28;20042;-76
2021/06/15 11:00:12;;;;;;;3.17;2.33;;;31.60;71.90;;;;;;5035497;28;20219;-76
2021/06/15 11:03:22;;;;;;;4.45;2.22;;;31.70;71.90;;;;;;5040608;28;20300;-76
2021/06/15 11:05:55;;;;;;;4.03;2.17;;;31.90;72.10;;;;;;5037669;28;20131;-76
2021/06/15 11:08:25;;;;;;;2.58;2.00;;;32.00;71.20;;;;;;5039424;28;20049;-76
2021/06/15 11:10:55;;;;;;;3.10;2.13;;;32.10;72.00;;;;;;5038042;28;20037;-76
2021/06/15 11:13:43;;;;;;;3.22;1.80;;;32.20;71.80;;;;;;5038750;28;20045;-76
2021/06/15 11:16:26;;;;;;;2.60;1.80;;;32.40;71.10;;;;;;5038099;28;20047;-76
2021/06/15 11:19:45;;;;;;;4.55;2.20;;;32.10;70.80;;;;;;5039091;28;20498;-76
2021/06/15 11:22:20;;;;;;;3.78;1.90;;;31.80;71.00;;;;;;5035626;28;20068;-76
2021/06/15 11:24:56;;;;;;;3.20;2.08;;;31.70;71.20;;;;;;5038664;28;21072;-76
2021/06/15 11:27:37;;;;;;;2.05;1.70;;;31.80;70.40;;;;;;5042405;28;20040;-76
2021/06/15 11:30:23;;;;;;;4.10;1.83;;;31.90;68.10;;;;;;5033947;28;20462;-76
2021/06/15 11:32:56;;;;;;;4.95;1.90;;;32.00;70.00;;;;;;5034172;28;20047;-76
2021/06/15 11:35:28;;;;;;;2.05;1.60;;;32.20;69.60;;;;;;5036875;28;20157;-76
2021/06/15 11:38:04;;;;;;;2.53;1.75;;;32.30;70.00;;;;;;5038732;28;20037;-76
2021/06/15 11:40:33;;;;;;;2.67;1.70;;;32.50;70.40;;;;;;5039229;28;20075;-76
2021/06/15 11:43:20;;;;;;;1.60;1.50;;;32.80;68.80;;;;;;5038168;28;20136;-76
2021/06/15 11:45:50;;;;;;;2.95;1.67;;;33.00;67.30;;;;;;5037317;28;20040;-76
2021/06/15 11:48:22;;;;;;;2.30;1.98;;;33.10;68.10;;;;;;5037048;28;20048;-76
2021/06/15 11:50:55;;;;;;;1.90;1.70;;;32.90;67.80;;;;;;5039630;28;20136;-76
2021/06/15 11:53:26;;;;;;;4.82;2.13;;;32.50;67.70;;;;;;5037576;28;20119;-76
2021/06/15 11:55:55;;;;;;;3.50;1.77;;;32.40;68.70;;;;;;5038205;28;20048;-76
2021/06/15 11:58:25;;;;;;;5.97;1.98;;;32.40;69.40;;;;;;5038161;28;20068;-76
2021/06/15 12:00:56;;;;;;;2.33;1.90;;;32.30;69.90;;;;;;5054561;28;20163;-76
2021/06/15 12:03:25;;;;;;;3.92;2.08;;;32.20;69.40;;;;;;5037715;28;20045;-76
2021/06/15 12:05:56;;;;;;;2.63;1.80;;;32.30;67.60;;;;;;5035271;28;20449;-76
2021/06/15 12:08:31;;;;;;;3.58;1.88;;;32.50;69.20;;;;;;5038911;28;20056;-76
2021/06/15 12:10:59;;;;;;;4.15;1.70;;;32.80;69.10;;;;;;5038358;28;20395;-76
2021/06/15 12:13:28;;;;;;;2.83;1.70;;;33.10;67.80;;;;;;5025010;28;20052;-76
2021/06/15 12:16:01;;;;;;;3.38;2.20;;;33.40;67.50;;;;;;5036977;28;20060;-76
2021/06/15 12:18:35;;;;;;;2.20;1.85;;;33.60;66.30;;;;;;5039355;28;20076;-76
2021/06/15 12:21:06;;;;;;;2.08;1.80;;;33.50;65.10;;;;;;5018917;28;20052;-76
2021/06/15 12:23:39;;;;;;;2.78;1.58;;;33.40;65.80;;;;;;5023331;28;20041;-76
2021/06/15 12:26:12;;;;;;;2.35;1.88;;;33.60;65.60;;;;;;5036924;28;20049;-76
2021/06/15 12:28:43;;;;;;;2.92;1.90;;;33.50;64.70;;;;;;5037496;28;20052;-76
2021/06/15 12:31:14;;;;;;;3.05;1.98;;;33.50;65.40;;;;;;5037135;28;20052;-76
2021/06/15 12:33:44;;;;;;;4.00;1.90;;;33.60;65.50;;;;;;5031622;28;20045;-76
2021/06/15 12:36:14;;;;;;;5.22;2.15;;;33.50;64.70;;;;;;5039322;28;20073;-76
2021/06/15 12:38:46;;;;;;;5.22;1.85;;;33.10;65.00;;;;;;5036126;28;20209;-76
2021/06/15 12:41:16;;;;;;;2.75;1.95;;;33.30;65.50;;;;;;5038394;28;20448;-76
2021/06/15 12:43:45;;;;;;;3.00;2.30;;;33.40;65.50;;;;;;5035565;28;20048;-76
2021/06/15 12:46:20;;;;;;;2.35;1.95;;;33.40;65.20;;;;;;5035949;28;20116;-76
2021/06/15 12:48:52;;;;;;;3.40;2.00;;;33.30;64.40;;;;;;5041401;28;20110;-76
2021/06/15 12:51:24;;;;;;;3.88;2.00;;;33.30;65.40;;;;;;5020877;28;20111;-76
2021/06/15 12:53:55;;;;;;;3.28;1.90;;;33.40;64.50;;;;;;5039958;28;20796;-76
2021/06/15 12:56:25;;;;;;;2.28;2.05;;;33.60;65.60;;;;;;5023941;28;20069;-76
2021/06/15 12:58:55;;;;;;;3.53;2.45;;;33.80;64.70;;;;;;5042061;28;20094;-76
2021/06/15 13:01:32;;;;;;;6.47;1.90;;;34.00;64.70;;;;;;5038375;28;20044;-76
2021/06/15 13:04:17;;;;;;;3.15;2.20;;;34.30;65.80;;;;;;5036398;28;20104;-76
2021/06/15 13:06:46;;;;;;;2.95;1.80;;;34.60;63.90;;;;;;5036216;28;20532;-76
2021/06/15 13:09:17;;;;;;;2.90;1.98;;;34.50;63.50;;;;;;5033250;28;20041;-75
2021/06/15 13:11:57;;;;;;;2.78;2.30;;;34.40;65.20;;;;;;5036294;28;20076;-76
2021/06/15 13:14:27;;;;;;;3.47;2.15;;;34.30;65.00;;;;;;5035406;28;20049;-75
2021/06/15 13:17:01;;;;;;;3.08;2.10;;;34.40;65.20;;;;;;5039139;28;20146;-75
2021/06/15 13:19:41;;;;;;;3.60;2.20;;;34.70;65.70;;;;;;5042433;28;20041;-75
2021/06/15 13:22:14;;;;;;;5.80;2.53;;;34.60;64.80;;;;;;5037719;28;20525;-76
2021/06/15 13:24:45;;;;;;;2.25;2.05;;;34.60;64.40;;;;;;5041798;28;20333;-75
2021/06/15 13:27:35;;;;;;;3.97;2.28;;;34.70;64.30;;;;;;5042338;28;20051;-75